Shipley, United Kingdom
Current Conditions -  °F | °C
As of 7:20 PM on Thursday 27 Nov 2014 (Local Time) from EGNM Reporting Station
Haze Haze  
Wind Chill: 42°   Ceiling: 200
Heat Index: 45°   Visibility: 0.87mi
Dew Point: 45°   Wind: 5mph
Humidity: 100%   Direction: 150°SSE
Pressure: 29.59"   Gusts: NA
Location:  53.83°N, 1.78°W
Report Text: EGNM 271920Z 15004KT 1400 R14/P1500 BR BKN002 07/07 Q1002
Loading
Personal Weather Stations






























Interactive Weather Map New forecast layout! Learn more

10-Day Weather Forecast

Advertisements
Track Severe Weather on mobile